メインページ
METAR-TAF:

METAR-TAF

空港 :

ピッツバーグ, ペンシルバニア州, アメリカ合衆国

ピッツバーグ国際空港

緯度: 40-30-14N, 経度: 080-15-59W, 海抜: 366m

現時点の気象観測

当レポートは25分前の22:51(UTC)に作成
西/北西の風 3kt
気温 22°C
湿度 73%
気圧 1012 hPa
視程: 16.1km
高度2900ftの雲はほとんどない
高度8500ftの雲はほとんどない
高度25000ftの千切れ雲あり

METAR: KPIT 272251Z 30003KT 10SM FEW029 FEW085 BKN250 22/17 A2989 RMK AO2 SLP123 T02170167

時間: 19:16 (23:16 UTC)

予報

当レポートは2時間18分前の20:58(UTC)に作成
予報は27日の 21時(UTC)から 28日の 24時(UTC)まで有効
東/北東の風 3kt
視程: 10km
高度3500ftの千切れ雲あり
28日の 0000時(UTC)から
の風 kt
視程: 10km
高度6000ftの雲は散在している
28日の 0900時(UTC)から
東/南東の風 3kt
視程: 4.8km
高度1000ftの千切れ雲あり
28日の 1500時(UTC)から
南/南東の風 6kt
視程: 10km
高度3500ftの千切れ雲あり
28日の 1800時(UTC)から
の風 8kt
視程: 10km
高度4000ftの曇り, 積乱雲.
弱いにわか雨, 近辺で激しい雷雨

TAF: KPIT 272058Z 2721/2824 07003KT P6SM BKN035 FM280000 00000KT P6SM SCT060 FM280900 12003KT 3SM BR BKN010 FM281500 15006KT P6SM BKN035 FM281800 17008KT P6SM -SHRA VCTS OVC040CB

4,000以上の空港の気象観測と天気予報(METAR報とTAF報)

利用可能な観測所は地図上に黄色い丸と赤い丸で示す。

丸の上にカーソルを重ねると観測所名を参照できる。

次にクリックすると気象観測と天気予報を参照できる。

マップの切り替え:黒色「×」印の緑ボタンをクリックして拡大、「-」印の緑ボタンをクリックして縮小、緑色の三角印をクリックして隣りの地図に切り替え


METAR-TAF: